createdAt,value
2019-03-24T00:00:30.451Z,7.95
2019-03-24T00:01:40.734Z,7.98
2019-03-24T00:02:31.428Z,7.94
2019-03-24T00:03:30.416Z,7.98
2019-03-24T00:04:30.420Z,7.91
2019-03-24T00:05:30.396Z,7.76
2019-03-24T00:06:30.431Z,7.80
2019-03-24T00:07:30.379Z,7.81
2019-03-24T00:08:30.364Z,7.74
2019-03-24T00:09:30.347Z,7.78
2019-03-24T00:10:30.337Z,7.73
2019-03-24T00:11:30.357Z,7.76
2019-03-24T00:12:30.317Z,7.69
2019-03-24T00:13:30.310Z,7.69
2019-03-24T00:14:30.301Z,7.52
2019-03-24T00:15:30.282Z,7.52
2019-03-24T00:16:30.306Z,7.66
2019-03-24T00:17:30.284Z,7.52
2019-03-24T00:18:30.247Z,7.50
2019-03-24T00:19:30.247Z,7.50
2019-03-24T00:20:30.237Z,7.55
2019-03-24T00:21:30.222Z,7.55
2019-03-24T00:22:30.424Z,7.69
2019-03-24T00:23:30.190Z,7.71
2019-03-24T00:24:30.186Z,7.74
2019-03-24T00:25:30.173Z,7.66
2019-03-24T00:26:30.157Z,7.69
2019-03-24T00:27:30.185Z,7.77
2019-03-24T00:28:30.138Z,7.64
2019-03-24T00:29:30.145Z,7.76
2019-03-24T00:30:30.122Z,7.74
2019-03-24T00:31:30.105Z,7.64
2019-03-24T00:32:30.134Z,7.69
2019-03-24T00:33:30.079Z,7.74
2019-03-24T00:34:30.070Z,7.71
2019-03-24T00:35:30.061Z,7.66
2019-03-24T00:36:30.051Z,7.66
2019-03-24T00:37:30.059Z,7.57
2019-03-24T00:38:30.031Z,7.58
2019-03-24T00:39:30.013Z,7.46
2019-03-24T00:40:30.001Z,7.62
2019-03-24T00:41:29.999Z,7.60
2019-03-24T00:42:30.011Z,7.44
2019-03-24T00:43:29.987Z,7.47
2019-03-24T00:44:29.959Z,7.44
2019-03-24T00:45:36.777Z,7.44
2019-03-24T00:46:30.932Z,7.42
2019-03-24T00:47:29.933Z,7.54
2019-03-24T00:48:29.940Z,7.49
2019-03-24T00:49:29.912Z,7.54
2019-03-24T00:50:29.896Z,7.52
2019-03-24T00:51:29.881Z,7.49
2019-03-24T00:52:29.889Z,7.52
2019-03-24T00:53:29.882Z,7.61
2019-03-24T00:54:29.870Z,7.64
2019-03-24T00:55:29.834Z,7.54
2019-03-24T00:56:29.870Z,7.49
2019-03-24T00:57:29.864Z,7.49
2019-03-24T00:58:29.830Z,7.62
2019-03-24T00:59:29.796Z,7.55
2019-03-24T01:00:29.779Z,7.46
2019-03-24T01:01:29.769Z,7.57
2019-03-24T01:02:29.760Z,7.49
2019-03-24T01:03:29.771Z,7.46
2019-03-24T01:04:29.738Z,7.36
2019-03-24T01:05:29.721Z,7.46
2019-03-24T01:06:29.715Z,7.49
2019-03-24T01:07:29.707Z,7.52
2019-03-24T01:08:29.718Z,7.61
2019-03-24T01:09:29.677Z,7.60
2019-03-24T01:10:29.668Z,7.58
2019-03-24T01:11:29.653Z,7.50
2019-03-24T01:12:29.642Z,7.31
2019-03-24T01:13:29.660Z,7.31
2019-03-24T01:14:29.624Z,7.37
2019-03-24T01:15:29.629Z,7.37
2019-03-24T01:16:29.596Z,7.36
2019-03-24T01:17:29.587Z,7.34
2019-03-24T01:18:29.586Z,7.40
2019-03-24T01:19:29.586Z,7.42
2019-03-24T01:20:29.555Z,7.46
2019-03-24T01:21:29.552Z,7.50
2019-03-24T01:22:29.534Z,7.33
2019-03-24T01:23:29.545Z,7.37
2019-03-24T01:24:29.508Z,7.52
2019-03-24T01:25:29.506Z,7.40
2019-03-24T01:26:29.486Z,7.54
2019-03-24T01:27:29.478Z,7.52
2019-03-24T01:28:29.500Z,7.54
2019-03-24T01:29:29.462Z,7.57
2019-03-24T01:30:29.462Z,7.52
2019-03-24T01:31:29.431Z,7.44
2019-03-24T01:32:29.425Z,7.47
2019-03-24T01:33:29.441Z,7.39
2019-03-24T01:34:29.396Z,7.31
2019-03-24T01:35:29.385Z,7.28
2019-03-24T01:36:29.373Z,7.26
2019-03-24T01:37:29.364Z,7.29
2019-03-24T01:38:29.354Z,7.29
2019-03-24T01:39:29.379Z,7.29
2019-03-24T01:40:29.347Z,7.33
2019-03-24T01:41:29.319Z,7.33
2019-03-24T01:42:29.314Z,7.44
2019-03-24T01:43:29.307Z,7.34
2019-03-24T01:44:29.307Z,7.34
2019-03-24T01:45:29.286Z,7.34
2019-03-24T01:46:29.271Z,7.47
2019-03-24T01:47:29.253Z,7.54
2019-03-24T01:48:29.257Z,7.47
2019-03-24T01:49:29.276Z,7.31
2019-03-24T01:50:29.223Z,7.33
2019-03-24T01:51:29.255Z,7.36
2019-03-24T01:52:29.197Z,7.28
2019-03-24T01:53:29.184Z,7.24
2019-03-24T01:54:29.199Z,7.21
2019-03-24T01:55:29.161Z,7.25
2019-03-24T01:56:29.152Z,7.22
2019-03-24T01:57:29.140Z,7.29
2019-03-24T01:58:29.137Z,7.33
2019-03-24T01:59:29.140Z,7.42
2019-03-24T02:00:29.110Z,7.18
2019-03-24T02:01:29.106Z,7.16
2019-03-24T02:02:29.117Z,7.15
2019-03-24T02:03:29.084Z,7.19
2019-03-24T02:04:29.088Z,7.19
2019-03-24T02:05:29.053Z,7.24
2019-03-24T02:06:29.040Z,7.24
2019-03-24T02:07:29.030Z,7.21
2019-03-24T02:08:29.020Z,7.21
2019-03-24T02:09:29.093Z,7.21
2019-03-24T02:10:29.029Z,7.15
2019-03-24T02:11:28.986Z,7.24
2019-03-24T02:12:28.974Z,7.18
2019-03-24T02:13:28.968Z,7.08
2019-03-24T02:14:28.954Z,7.06
2019-03-24T02:15:28.960Z,6.86
2019-03-24T02:16:28.938Z,6.83
2019-03-24T02:17:28.921Z,6.85
2019-03-24T02:18:28.908Z,6.83
2019-03-24T02:19:28.899Z,6.78
2019-03-24T02:20:28.910Z,6.79
2019-03-24T02:21:28.889Z,6.71
2019-03-24T02:22:28.863Z,6.67
2019-03-24T02:23:28.854Z,6.56
2019-03-24T02:24:28.842Z,6.61
2019-03-24T02:25:28.852Z,6.64
2019-03-24T02:26:28.824Z,6.60
2019-03-24T02:27:28.805Z,6.64
2019-03-24T02:28:28.802Z,6.67
2019-03-24T02:29:28.786Z,6.63
2019-03-24T02:30:28.815Z,6.55
2019-03-24T02:31:28.765Z,6.61
2019-03-24T02:32:28.755Z,6.42
2019-03-24T02:33:28.740Z,6.67
2019-03-24T02:34:28.744Z,6.61
2019-03-24T02:35:28.750Z,6.46
2019-03-24T02:36:28.708Z,6.43
2019-03-24T02:37:28.696Z,6.46
2019-03-24T02:38:28.685Z,6.45
2019-03-24T02:39:28.679Z,6.42
2019-03-24T02:40:28.701Z,6.34
2019-03-24T02:41:28.653Z,6.50
2019-03-24T02:42:28.639Z,6.40
2019-03-24T02:43:28.632Z,6.32
2019-03-24T02:44:28.636Z,6.43
2019-03-24T02:45:28.626Z,6.43
2019-03-24T02:46:28.629Z,6.42
2019-03-24T02:47:28.586Z,6.37
2019-03-24T02:48:28.578Z,6.38
2019-03-24T02:49:28.564Z,6.42
2019-03-24T02:50:28.556Z,6.35
2019-03-24T02:51:28.570Z,6.32
2019-03-24T02:52:28.531Z,6.32
2019-03-24T02:53:28.534Z,6.28
2019-03-24T02:54:28.532Z,6.32
2019-03-24T02:55:28.502Z,6.32
2019-03-24T02:56:28.513Z,6.31
2019-03-24T02:57:28.474Z,6.16
2019-03-24T02:58:28.465Z,6.16
2019-03-24T02:59:28.465Z,6.25
2019-03-24T03:00:28.446Z,6.30
2019-03-24T03:01:28.471Z,6.21
2019-03-24T03:02:28.418Z,6.21
2019-03-24T03:03:28.406Z,6.34
2019-03-24T03:04:28.401Z,6.25
2019-03-24T03:05:28.391Z,6.25
2019-03-24T03:06:28.375Z,6.49
2019-03-24T03:07:28.388Z,6.19
2019-03-24T03:08:28.353Z,6.40
2019-03-24T03:09:28.344Z,6.34
2019-03-24T03:10:28.336Z,6.45
2019-03-24T03:11:28.345Z,6.31
2019-03-24T03:12:28.330Z,6.27
2019-03-24T03:13:28.300Z,6.35
2019-03-24T03:14:28.292Z,6.40
2019-03-24T03:15:28.286Z,6.40
2019-03-24T03:16:38.302Z,6.40
2019-03-24T03:17:29.252Z,6.45
2019-03-24T03:18:28.247Z,6.43
2019-03-24T03:19:28.241Z,6.24
2019-03-24T03:20:28.226Z,6.42
2019-03-24T03:21:28.244Z,6.32
2019-03-24T03:22:28.225Z,6.31
2019-03-24T03:23:28.196Z,6.21
2019-03-24T03:24:28.177Z,6.40
2019-03-24T03:25:28.166Z,6.32
2019-03-24T03:26:28.155Z,6.35
2019-03-24T03:27:28.175Z,6.27
2019-03-24T03:28:28.130Z,6.47
2019-03-24T03:29:28.117Z,6.35
2019-03-24T03:30:28.131Z,6.34
2019-03-24T03:31:28.099Z,6.28
2019-03-24T03:32:28.144Z,6.25
2019-03-24T03:33:28.078Z,6.24
2019-03-24T03:34:28.082Z,6.30
2019-03-24T03:35:28.053Z,6.32
2019-03-24T03:36:28.178Z,6.15
2019-03-24T03:37:28.219Z,6.28
2019-03-24T03:38:28.035Z,6.13
2019-03-24T03:39:28.061Z,6.16
2019-03-24T03:40:28.001Z,6.24
2019-03-24T03:41:27.999Z,6.21
2019-03-24T03:42:27.998Z,6.09
2019-03-24T03:43:28.082Z,6.13
2019-03-24T03:44:27.952Z,6.09
2019-03-24T03:45:27.947Z,5.95
2019-03-24T03:46:27.931Z,6.00
2019-03-24T03:47:28.026Z,5.85
2019-03-24T03:48:27.935Z,5.87
2019-03-24T03:49:27.901Z,5.77
2019-03-24T03:50:27.884Z,5.79
2019-03-24T03:51:27.875Z,5.90
2019-03-24T03:52:27.894Z,5.73
2019-03-24T03:53:27.853Z,5.70
2019-03-24T03:54:27.876Z,5.66
2019-03-24T03:55:27.830Z,5.65
2019-03-24T03:56:27.829Z,5.58
2019-03-24T03:57:27.817Z,5.58
2019-03-24T03:58:27.826Z,5.77
2019-03-24T03:59:27.784Z,5.75
2019-03-24T04:00:27.771Z,5.84
2019-03-24T04:01:27.761Z,5.84
2019-03-24T04:02:27.759Z,5.85
2019-03-24T04:03:27.762Z,5.98
2019-03-24T04:04:27.730Z,5.79
2019-03-24T04:05:27.715Z,5.72
2019-03-24T04:06:27.706Z,5.58
2019-03-24T04:07:27.692Z,5.76
2019-03-24T04:08:27.714Z,5.66
2019-03-24T04:09:27.680Z,5.72
2019-03-24T04:10:27.660Z,5.67
2019-03-24T04:11:27.652Z,5.66
2019-03-24T04:12:27.633Z,5.77
2019-03-24T04:13:27.647Z,5.75
2019-03-24T04:14:27.611Z,5.69
2019-03-24T04:15:27.601Z,5.70
2019-03-24T04:16:27.591Z,5.59
2019-03-24T04:17:27.589Z,5.62
2019-03-24T04:18:27.593Z,5.66
2019-03-24T04:19:27.589Z,5.61
2019-03-24T04:20:27.545Z,5.76
2019-03-24T04:21:27.531Z,5.69
2019-03-24T04:22:27.520Z,5.80
2019-03-24T04:23:27.542Z,5.67
2019-03-24T04:24:27.513Z,5.67
2019-03-24T04:25:27.490Z,5.69
2019-03-24T04:26:27.480Z,5.72
2019-03-24T04:27:27.465Z,5.75
2019-03-24T04:28:27.462Z,5.76
2019-03-24T04:29:27.465Z,5.85
2019-03-24T04:30:27.428Z,5.88
2019-03-24T04:31:27.425Z,5.82
2019-03-24T04:32:27.420Z,5.87
2019-03-24T04:33:27.399Z,5.75
2019-03-24T04:34:27.420Z,5.82
2019-03-24T04:35:27.375Z,5.79
2019-03-24T04:36:27.360Z,5.85
2019-03-24T04:37:27.352Z,5.90
2019-03-24T04:38:27.337Z,5.73
2019-03-24T04:39:27.347Z,5.77
2019-03-24T04:40:27.314Z,5.76
2019-03-24T04:41:27.311Z,5.80
2019-03-24T04:42:27.301Z,5.61
2019-03-24T04:43:27.285Z,5.72
2019-03-24T04:44:27.297Z,5.76
2019-03-24T04:45:27.256Z,5.58
2019-03-24T04:46:27.250Z,5.51
2019-03-24T04:47:27.233Z,5.50
2019-03-24T04:48:27.225Z,5.29
2019-03-24T04:49:27.233Z,5.25
2019-03-24T04:50:27.203Z,5.04
2019-03-24T04:51:27.186Z,5.14
2019-03-24T04:52:27.177Z,5.16
2019-03-24T04:53:27.165Z,5.04
2019-03-24T04:54:27.262Z,5.15
2019-03-24T04:55:27.150Z,5.19
2019-03-24T04:56:27.137Z,5.25
2019-03-24T04:57:27.133Z,5.27
2019-03-24T04:58:27.110Z,5.25
2019-03-24T04:59:27.094Z,5.25
2019-03-24T05:00:27.174Z,5.29
2019-03-24T05:01:27.075Z,5.37
2019-03-24T05:02:27.076Z,5.41
2019-03-24T05:03:27.049Z,5.52
2019-03-24T05:04:27.041Z,5.48
2019-03-24T05:05:27.054Z,5.43
2019-03-24T05:06:27.017Z,5.52
2019-03-24T05:07:27.003Z,5.50
2019-03-24T05:08:27.008Z,5.55
2019-03-24T05:09:26.982Z,5.54
2019-03-24T05:10:27.000Z,5.54
2019-03-24T05:11:26.967Z,5.54
2019-03-24T05:12:26.986Z,5.32
2019-03-24T05:13:26.937Z,5.32
2019-03-24T05:14:26.929Z,5.40
2019-03-24T05:15:26.959Z,5.30
2019-03-24T05:16:26.938Z,5.27
2019-03-24T05:17:27.500Z,5.33
2019-03-24T05:18:26.890Z,5.44
2019-03-24T05:19:26.867Z,5.44
2019-03-24T05:20:26.862Z,5.37
2019-03-24T05:21:26.874Z,5.30
2019-03-24T05:22:26.835Z,5.36
2019-03-24T05:23:26.823Z,5.24
2019-03-24T05:24:26.815Z,5.32
2019-03-24T05:25:26.808Z,5.41
2019-03-24T05:26:26.815Z,5.37
2019-03-24T05:27:26.785Z,5.18
2019-03-24T05:28:26.770Z,5.29
2019-03-24T05:29:26.769Z,5.29
2019-03-24T05:30:26.763Z,5.39
2019-03-24T05:31:26.760Z,5.24
2019-03-24T05:32:26.731Z,5.33
2019-03-24T05:33:26.725Z,5.30
2019-03-24T05:34:26.702Z,5.30
2019-03-24T05:35:26.709Z,5.30
2019-03-24T05:36:26.702Z,5.36
2019-03-24T05:37:26.673Z,5.30
2019-03-24T05:38:26.667Z,5.27
2019-03-24T05:39:26.645Z,5.39
2019-03-24T05:40:26.656Z,5.21
2019-03-24T05:41:26.772Z,5.30
2019-03-24T05:42:26.616Z,5.32
2019-03-24T05:43:26.598Z,5.33
2019-03-24T05:44:26.587Z,5.21
2019-03-24T05:45:26.580Z,5.22
2019-03-24T05:46:26.590Z,5.07
2019-03-24T05:47:36.642Z,5.19
2019-03-24T05:48:27.546Z,5.24
2019-03-24T05:49:26.529Z,5.07
2019-03-24T05:50:26.518Z,5.15
2019-03-24T05:51:26.533Z,5.22
2019-03-24T05:52:27.692Z,5.16
2019-03-24T05:53:26.486Z,5.15
2019-03-24T05:54:26.480Z,5.14
2019-03-24T05:55:26.466Z,5.07
2019-03-24T05:56:26.478Z,5.04
2019-03-24T05:57:26.445Z,5.06
2019-03-24T05:58:26.437Z,5.11
2019-03-24T05:59:26.450Z,5.14
2019-03-24T06:00:26.405Z,5.12
2019-03-24T06:01:26.392Z,5.07
2019-03-24T06:02:26.416Z,5.16
2019-03-24T06:03:26.379Z,5.09
2019-03-24T06:04:26.360Z,5.06
2019-03-24T06:05:26.353Z,4.98
2019-03-24T06:06:26.341Z,5.00
2019-03-24T06:07:26.370Z,5.16
2019-03-24T06:08:26.347Z,5.06
2019-03-24T06:09:26.330Z,5.03
2019-03-24T06:10:26.293Z,4.98
2019-03-24T06:11:26.283Z,5.06
2019-03-24T06:12:26.269Z,5.03
2019-03-24T06:13:26.259Z,5.16
2019-03-24T06:14:26.277Z,5.15
2019-03-24T06:15:26.236Z,5.09
2019-03-24T06:16:26.227Z,5.15
2019-03-24T06:17:26.216Z,5.25
2019-03-24T06:18:26.232Z,5.24
2019-03-24T06:19:26.214Z,5.18
2019-03-24T06:20:26.196Z,5.25
2019-03-24T06:21:26.175Z,5.21
2019-03-24T06:22:26.156Z,5.41
2019-03-24T06:23:26.153Z,5.32
2019-03-24T06:24:26.161Z,5.36
2019-03-24T06:25:26.125Z,5.41
2019-03-24T06:26:26.116Z,5.39
2019-03-24T06:27:26.106Z,5.30
2019-03-24T06:28:26.117Z,5.33
2019-03-24T06:29:26.095Z,5.40
2019-03-24T06:30:26.108Z,5.39
2019-03-24T06:31:26.074Z,5.39
2019-03-24T06:32:26.054Z,5.43
2019-03-24T06:33:26.034Z,5.41
2019-03-24T06:34:26.053Z,5.40
2019-03-24T06:35:26.041Z,5.27
2019-03-24T06:36:26.005Z,5.40
2019-03-24T06:37:26.003Z,5.33
2019-03-24T06:38:25.987Z,5.27
2019-03-24T06:39:25.994Z,5.39
2019-03-24T06:40:25.958Z,5.36
2019-03-24T06:41:25.951Z,5.34
2019-03-24T06:42:25.934Z,5.11
2019-03-24T06:43:25.926Z,5.22
2019-03-24T06:44:25.943Z,5.11
2019-03-24T06:45:28.677Z,5.11
2019-03-24T06:46:25.898Z,5.09
2019-03-24T06:47:25.879Z,4.93
2019-03-24T06:48:25.871Z,5.06
2019-03-24T06:49:25.897Z,5.11
2019-03-24T06:50:25.849Z,5.29
2019-03-24T06:51:26.132Z,5.24
2019-03-24T06:52:25.880Z,5.32
2019-03-24T06:53:25.814Z,5.36
2019-03-24T06:54:25.993Z,5.43
2019-03-24T06:55:25.798Z,5.30
2019-03-24T06:56:25.787Z,5.29
2019-03-24T06:57:25.767Z,5.32
2019-03-24T06:58:25.756Z,5.27
2019-03-24T06:59:25.768Z,5.44
2019-03-24T07:00:25.735Z,5.47
2019-03-24T07:01:25.722Z,5.39
2019-03-24T07:02:25.711Z,5.34
2019-03-24T07:03:25.705Z,5.33
2019-03-24T07:04:25.726Z,5.25
2019-03-24T07:05:25.703Z,5.33
2019-03-24T07:06:25.678Z,5.50
2019-03-24T07:07:25.681Z,5.48
2019-03-24T07:08:25.645Z,5.58
2019-03-24T07:09:25.633Z,5.52
2019-03-24T07:10:25.664Z,5.57
2019-03-24T07:11:25.611Z,5.57
2019-03-24T07:12:25.627Z,5.65
2019-03-24T07:13:25.593Z,5.54
2019-03-24T07:14:25.578Z,5.70
2019-03-24T07:15:25.590Z,5.66
2019-03-24T07:16:25.560Z,5.69
2019-03-24T07:17:25.545Z,5.61
2019-03-24T07:18:25.534Z,5.65
2019-03-24T07:19:25.541Z,5.70
2019-03-24T07:20:25.549Z,5.62
2019-03-24T07:21:25.522Z,5.73
2019-03-24T07:22:25.487Z,5.80
2019-03-24T07:23:25.485Z,5.94
2019-03-24T07:24:25.465Z,5.84
2019-03-24T07:25:25.482Z,5.91
2019-03-24T07:26:25.439Z,6.02
2019-03-24T07:27:25.433Z,6.03
2019-03-24T07:28:25.422Z,5.82
2019-03-24T07:29:25.410Z,5.80
2019-03-24T07:30:25.431Z,5.93
2019-03-24T07:31:25.387Z,5.76
2019-03-24T07:32:25.381Z,5.87
2019-03-24T07:33:25.366Z,6.00
2019-03-24T07:34:25.399Z,5.98
2019-03-24T07:35:25.343Z,5.85
2019-03-24T07:36:25.331Z,5.88
2019-03-24T07:37:25.322Z,5.93
2019-03-24T07:38:25.312Z,5.97
2019-03-24T07:39:25.344Z,5.95
2019-03-24T07:40:25.299Z,6.18
2019-03-24T07:41:25.299Z,6.21
2019-03-24T07:42:25.265Z,6.24
2019-03-24T07:43:25.256Z,6.30
2019-03-24T07:44:25.252Z,5.97
2019-03-24T07:45:25.238Z,6.00
2019-03-24T07:46:25.247Z,6.09
2019-03-24T07:47:25.234Z,6.16
2019-03-24T07:48:25.247Z,6.18
2019-03-24T07:49:25.215Z,6.19
2019-03-24T07:50:25.180Z,6.35
2019-03-24T07:51:25.164Z,6.38
2019-03-24T07:52:25.181Z,6.37
2019-03-24T07:53:25.151Z,6.12
2019-03-24T07:54:25.130Z,6.12
2019-03-24T07:55:25.130Z,6.18
2019-03-24T07:56:25.161Z,6.27
2019-03-24T07:57:25.100Z,6.30
2019-03-24T07:58:25.095Z,6.46
2019-03-24T07:59:25.080Z,6.52
2019-03-24T08:00:25.087Z,6.53
2019-03-24T08:01:25.104Z,6.61
2019-03-24T08:02:25.091Z,6.63
2019-03-24T08:03:25.035Z,6.63
2019-03-24T08:04:25.030Z,6.68
2019-03-24T08:05:25.017Z,6.65
2019-03-24T08:06:25.004Z,6.67
2019-03-24T08:07:25.030Z,6.81
2019-03-24T08:08:24.984Z,6.81
2019-03-24T08:09:24.965Z,6.92
2019-03-24T08:10:24.962Z,6.93
2019-03-24T08:11:24.952Z,7.06
2019-03-24T08:12:24.947Z,7.07
2019-03-24T08:13:24.971Z,7.03
2019-03-24T08:14:24.929Z,6.96
2019-03-24T08:15:24.899Z,7.06
2019-03-24T08:16:24.885Z,7.00
2019-03-24T08:17:24.881Z,6.85
2019-03-24T08:18:29.911Z,6.64
2019-03-24T08:19:25.856Z,6.60
2019-03-24T08:20:24.843Z,6.49
2019-03-24T08:21:24.833Z,6.42
2019-03-24T08:22:24.825Z,6.47
2019-03-24T08:23:24.831Z,6.55
2019-03-24T08:24:24.803Z,6.56
2019-03-24T08:25:24.794Z,6.57
2019-03-24T08:26:24.778Z,6.67
2019-03-24T08:27:24.762Z,6.78
2019-03-24T08:28:24.774Z,6.75
2019-03-24T08:29:24.752Z,6.88
2019-03-24T08:30:24.741Z,6.92
2019-03-24T08:31:24.727Z,6.97
2019-03-24T08:32:24.711Z,7.08
2019-03-24T08:33:24.731Z,7.07
2019-03-24T08:34:24.712Z,7.11
2019-03-24T08:35:24.684Z,7.10
2019-03-24T08:36:24.672Z,7.00
2019-03-24T08:37:24.660Z,6.97
2019-03-24T08:38:24.665Z,7.04
2019-03-24T08:39:24.663Z,7.04
2019-03-24T08:40:24.621Z,7.06
2019-03-24T08:41:24.613Z,6.96
2019-03-24T08:42:24.601Z,7.07
2019-03-24T08:43:24.614Z,7.16
2019-03-24T08:44:24.577Z,7.22
2019-03-24T08:45:24.564Z,7.21
2019-03-24T08:46:24.559Z,7.26
2019-03-24T08:47:24.552Z,7.26
2019-03-24T08:48:24.546Z,7.26
2019-03-24T08:49:24.553Z,7.28
2019-03-24T08:50:24.511Z,7.13
2019-03-24T08:51:24.504Z,7.19
2019-03-24T08:52:24.501Z,7.21
2019-03-24T08:53:24.480Z,7.22
2019-03-24T08:54:24.496Z,7.28
2019-03-24T08:55:24.457Z,7.25
2019-03-24T08:56:24.448Z,7.26
2019-03-24T08:57:24.446Z,7.22
2019-03-24T08:58:24.424Z,7.34
2019-03-24T08:59:24.444Z,7.29
2019-03-24T09:00:30.524Z,7.39
2019-03-24T09:01:25.394Z,7.37
2019-03-24T09:02:24.379Z,7.52
2019-03-24T09:03:24.411Z,7.52
2019-03-24T09:04:24.390Z,7.54
2019-03-24T09:05:24.363Z,7.62
2019-03-24T09:06:24.332Z,7.81
2019-03-24T09:07:24.483Z,7.57
2019-03-24T09:08:24.314Z,7.68
2019-03-24T09:09:24.324Z,7.55
2019-03-24T09:10:24.315Z,7.49
2019-03-24T09:11:31.157Z,7.47
2019-03-24T09:12:25.265Z,7.60
2019-03-24T09:13:24.272Z,7.57
2019-03-24T09:14:24.280Z,7.71
2019-03-24T09:15:24.230Z,7.91
2019-03-24T09:16:24.220Z,7.87
2019-03-24T09:17:24.251Z,7.92
2019-03-24T09:18:24.198Z,7.99
2019-03-24T09:19:24.205Z,8.16
2019-03-24T09:20:24.223Z,7.86
2019-03-24T09:21:24.167Z,7.95
2019-03-24T09:22:24.154Z,7.94
2019-03-24T09:23:24.148Z,8.02
2019-03-24T09:24:24.173Z,7.96
2019-03-24T09:25:24.162Z,8.12
2019-03-24T09:26:24.153Z,8.01
2019-03-24T09:27:24.114Z,8.16
2019-03-24T09:28:24.093Z,8.26
2019-03-24T09:29:24.076Z,8.19
2019-03-24T09:30:24.076Z,8.31
2019-03-24T09:31:24.083Z,8.41
2019-03-24T09:32:24.051Z,8.35
2019-03-24T09:33:24.035Z,8.32
2019-03-24T09:34:24.020Z,8.26
2019-03-24T09:35:24.065Z,8.23
2019-03-24T09:36:24.003Z,8.14
2019-03-24T09:37:23.985Z,8.31
2019-03-24T09:38:23.977Z,8.12
2019-03-24T09:39:23.969Z,8.17
2019-03-24T09:40:23.992Z,8.01
2019-03-24T09:41:23.942Z,8.04
2019-03-24T09:42:23.946Z,8.01
2019-03-24T09:43:23.919Z,8.12
2019-03-24T09:44:23.907Z,8.04
2019-03-24T09:45:23.936Z,8.05
2019-03-24T09:46:23.902Z,8.17
2019-03-24T09:47:23.887Z,8.26
2019-03-24T09:48:23.864Z,7.99
2019-03-24T09:49:23.850Z,8.05
2019-03-24T09:50:23.840Z,8.17
2019-03-24T09:51:23.856Z,8.09
2019-03-24T09:52:23.814Z,7.99
2019-03-24T09:53:23.810Z,8.13
2019-03-24T09:54:23.800Z,8.19
2019-03-24T09:55:23.782Z,8.37
2019-03-24T09:56:23.800Z,8.39
2019-03-24T09:57:23.879Z,8.38
2019-03-24T09:58:23.772Z,8.57
2019-03-24T09:59:23.851Z,8.55
2019-03-24T10:00:23.731Z,8.72
2019-03-24T10:01:23.867Z,8.56
2019-03-24T10:02:23.706Z,8.62
2019-03-24T10:03:23.695Z,8.56
2019-03-24T10:04:23.687Z,8.68
2019-03-24T10:05:23.672Z,8.65
2019-03-24T10:06:23.697Z,8.74
2019-03-24T10:07:23.678Z,8.90
2019-03-24T10:08:23.646Z,8.96
2019-03-24T10:09:23.632Z,9.03
2019-03-24T10:10:23.614Z,8.85
2019-03-24T10:11:23.631Z,8.83
2019-03-24T10:12:23.599Z,8.81
2019-03-24T10:13:23.588Z,8.83
2019-03-24T10:14:23.582Z,9.03
2019-03-24T10:15:23.563Z,8.96
2019-03-24T10:16:23.588Z,8.93
2019-03-24T10:17:23.541Z,8.92
2019-03-24T10:18:23.527Z,8.93
2019-03-24T10:19:23.515Z,8.92
2019-03-24T10:20:23.504Z,9.06
2019-03-24T10:21:23.534Z,9.11
2019-03-24T10:22:23.480Z,9.15
2019-03-24T10:23:23.474Z,9.18
2019-03-24T10:24:23.455Z,9.32
2019-03-24T10:25:23.440Z,9.51
2019-03-24T10:26:23.471Z,9.52
2019-03-24T10:27:23.453Z,9.50
2019-03-24T10:28:23.772Z,9.45
2019-03-24T10:29:23.407Z,9.51
2019-03-24T10:30:23.402Z,9.51
2019-03-24T10:31:23.381Z,9.62
2019-03-24T10:32:23.400Z,9.70
2019-03-24T10:33:23.357Z,9.83
2019-03-24T10:34:23.356Z,9.94
2019-03-24T10:35:23.340Z,10.18
2019-03-24T10:36:23.358Z,10.34
2019-03-24T10:37:23.352Z,10.39
2019-03-24T10:38:23.301Z,10.52
2019-03-24T10:39:23.284Z,10.65
2019-03-24T10:40:28.727Z,10.43
2019-03-24T10:41:24.316Z,10.46
2019-03-24T10:42:23.289Z,10.64
2019-03-24T10:43:23.240Z,10.75
2019-03-24T10:44:23.236Z,10.82
2019-03-24T10:45:23.237Z,10.91
2019-03-24T10:46:23.208Z,10.98
2019-03-24T10:47:23.228Z,11.08
2019-03-24T10:48:33.140Z,11.19
2019-03-24T10:49:25.305Z,11.20
2019-03-24T10:50:23.166Z,11.20
2019-03-24T10:51:23.150Z,11.36
2019-03-24T10:52:23.176Z,11.52
2019-03-24T10:53:23.131Z,11.48
2019-03-24T10:54:23.130Z,11.34
2019-03-24T10:55:23.112Z,11.31
2019-03-24T10:56:23.097Z,11.23
2019-03-24T10:57:23.149Z,11.34
2019-03-24T10:58:23.116Z,11.36
2019-03-24T10:59:23.095Z,11.03
2019-03-24T11:00:23.051Z,11.12
2019-03-24T11:01:23.052Z,11.12
2019-03-24T11:02:23.034Z,11.09
2019-03-24T11:03:23.082Z,11.13
2019-03-24T11:04:23.020Z,11.03
2019-03-24T11:05:22.994Z,11.08
2019-03-24T11:06:22.986Z,10.95
2019-03-24T11:07:22.975Z,10.85
2019-03-24T11:08:23.023Z,10.87
2019-03-24T11:09:22.958Z,10.76
2019-03-24T11:10:22.950Z,10.82
2019-03-24T11:11:22.949Z,10.93
2019-03-24T11:12:22.927Z,10.65
2019-03-24T11:13:22.936Z,10.76
2019-03-24T11:14:22.906Z,10.80
2019-03-24T11:15:22.887Z,10.72
2019-03-24T11:16:22.896Z,10.68
2019-03-24T11:17:22.858Z,10.68
2019-03-24T11:18:22.927Z,10.54
2019-03-24T11:19:22.887Z,10.48
2019-03-24T11:20:22.832Z,10.48
2019-03-24T11:21:22.819Z,10.49
2019-03-24T11:22:22.818Z,10.48
2019-03-24T11:23:22.797Z,10.49
2019-03-24T11:24:22.810Z,10.39
2019-03-24T11:25:22.780Z,10.39
2019-03-24T11:26:22.804Z,10.55
2019-03-24T11:27:22.749Z,10.65
2019-03-24T11:28:22.745Z,10.75
2019-03-24T11:29:22.778Z,10.80
2019-03-24T11:30:22.727Z,10.91
2019-03-24T11:31:22.822Z,10.93
2019-03-24T11:32:22.692Z,11.00
2019-03-24T11:33:22.674Z,10.98
2019-03-24T11:34:22.700Z,11.01
2019-03-24T11:35:22.659Z,10.95
2019-03-24T11:36:22.653Z,10.90
2019-03-24T11:37:22.638Z,11.08
2019-03-24T11:38:22.628Z,11.13
2019-03-24T11:39:22.617Z,11.36
2019-03-24T11:40:22.622Z,11.30
2019-03-24T11:41:22.583Z,11.52
2019-03-24T11:42:22.574Z,11.56
2019-03-24T11:43:22.563Z,11.49
2019-03-24T11:44:22.588Z,11.46
2019-03-24T11:45:22.565Z,11.28
2019-03-24T11:46:22.539Z,11.12
2019-03-24T11:47:26.825Z,11.13
2019-03-24T11:48:22.503Z,11.03
2019-03-24T11:49:22.496Z,11.01
2019-03-24T11:50:22.541Z,11.12
2019-03-24T11:51:22.471Z,11.03
2019-03-24T11:52:22.462Z,10.80
2019-03-24T11:53:22.451Z,10.94
2019-03-24T11:54:22.439Z,10.98
2019-03-24T11:55:22.463Z,11.13
2019-03-24T11:56:22.445Z,11.25
2019-03-24T11:57:22.413Z,11.30
2019-03-24T11:58:22.404Z,11.49
2019-03-24T11:59:22.393Z,11.43
2019-03-24T12:00:22.371Z,11.54
2019-03-24T12:01:22.401Z,11.51
2019-03-24T12:02:22.372Z,11.41
2019-03-24T12:03:22.384Z,11.46
2019-03-24T12:04:22.358Z,11.51
2019-03-24T12:05:22.348Z,11.69
2019-03-24T12:06:22.334Z,11.76
2019-03-24T12:07:22.291Z,11.71
2019-03-24T12:08:22.283Z,11.88
2019-03-24T12:09:22.280Z,11.91
2019-03-24T12:10:22.256Z,11.69
2019-03-24T12:11:22.271Z,11.74
2019-03-24T12:12:22.242Z,11.66
2019-03-24T12:13:22.227Z,11.52
2019-03-24T12:14:22.221Z,11.48
2019-03-24T12:15:22.205Z,11.49
2019-03-24T12:16:22.218Z,11.49
2019-03-24T12:17:22.175Z,11.62
2019-03-24T12:18:22.163Z,11.62
2019-03-24T12:19:22.156Z,11.64
2019-03-24T12:20:22.144Z,11.45
2019-03-24T12:21:22.160Z,11.41
2019-03-24T12:22:22.124Z,11.22
2019-03-24T12:23:22.106Z,10.97
2019-03-24T12:24:22.100Z,10.98
2019-03-24T12:25:22.092Z,11.00
2019-03-24T12:26:22.126Z,11.04
2019-03-24T12:27:22.070Z,11.28
2019-03-24T12:28:22.066Z,11.28
2019-03-24T12:29:22.038Z,11.25
2019-03-24T12:30:22.030Z,11.45
2019-03-24T12:31:22.119Z,11.34
2019-03-24T12:32:22.030Z,11.12
2019-03-24T12:33:21.996Z,11.05
2019-03-24T12:34:21.990Z,11.08
2019-03-24T12:35:21.979Z,11.15
2019-03-24T12:36:21.964Z,11.23
2019-03-24T12:37:21.972Z,11.34
2019-03-24T12:38:21.944Z,11.13
2019-03-24T12:39:21.946Z,11.28
2019-03-24T12:40:21.918Z,11.25
2019-03-24T12:41:21.946Z,11.30
2019-03-24T12:42:21.893Z,11.27
2019-03-24T12:43:21.878Z,11.20
2019-03-24T12:44:21.878Z,11.18
2019-03-24T12:45:21.861Z,11.08
2019-03-24T12:46:21.875Z,11.03
2019-03-24T12:47:21.831Z,10.98
2019-03-24T12:48:21.872Z,10.98
2019-03-24T12:49:21.816Z,10.95
2019-03-24T12:50:30.865Z,10.95
2019-03-24T12:51:22.814Z,10.79
2019-03-24T12:52:21.817Z,10.86
2019-03-24T12:53:21.776Z,10.86
2019-03-24T12:54:21.771Z,10.94
2019-03-24T12:55:21.756Z,10.93
2019-03-24T12:56:21.755Z,10.94
2019-03-24T12:57:21.753Z,11.03
2019-03-24T12:58:21.750Z,11.27
2019-03-24T12:59:21.706Z,11.28
2019-03-24T13:00:21.703Z,11.20
2019-03-24T13:01:21.673Z,11.33
2019-03-24T13:02:21.673Z,11.28
2019-03-24T13:03:21.688Z,11.41
2019-03-24T13:04:21.655Z,11.46
2019-03-24T13:05:21.636Z,11.62
2019-03-24T13:06:21.626Z,11.62
2019-03-24T13:07:21.622Z,11.41
2019-03-24T13:08:21.644Z,11.59
2019-03-24T13:09:21.594Z,11.51
2019-03-24T13:10:21.571Z,11.34
2019-03-24T13:11:21.562Z,11.27
2019-03-24T13:12:21.556Z,11.36
2019-03-24T13:13:21.585Z,11.51